Linden, North Carolina
Current Conditions -  °F | °C
As of 9:35 AM on Friday 31 Oct 2014 (Local Time) from KHRJ Reporting Station
Clear Clear  
Wind Chill: 51°   Ceiling: Unl
Heat Index: 51°   Visibility: 10mi
Dew Point: 42°   Wind: 3mph
Humidity: 72%   Direction: 10°N
Pressure: 29.95"   Gusts: NA
Location:  35.25°N, 78.75°W
Report Text: KHRJ 311335Z AUTO 01003KT 10SM CLR 11/06 A2995 RMK AO2 T01060057
Loading
Personal Weather Stations






























Interactive Weather Map
Tropical Storm Tracking
New forecast layout! Learn more

10-Day Weather Forecast

Advertisements
Track Severe Weather on mobile